createdAt,value
2023-05-10T00:00:25.017Z,20.44
2023-05-10T00:01:26.707Z,20.45
2023-05-10T00:02:24.259Z,20.46
2023-05-10T00:03:23.885Z,20.46
2023-05-10T00:04:23.954Z,20.46
2023-05-10T00:05:24.337Z,20.46
2023-05-10T00:06:24.264Z,20.48
2023-05-10T00:07:23.939Z,20.47
2023-05-10T00:08:23.781Z,20.49
2023-05-10T00:09:24.073Z,20.49
2023-05-10T00:10:24.563Z,20.5
2023-05-10T00:11:24.555Z,20.48
2023-05-10T00:12:24.343Z,20.48
2023-05-10T00:13:24.267Z,20.5
2023-05-10T00:14:24.213Z,20.51
2023-05-10T00:15:24.154Z,20.47
2023-05-10T00:16:24.020Z,20.49
2023-05-10T00:17:24.286Z,20.48
2023-05-10T00:18:24.183Z,20.50
2023-05-10T00:19:24.358Z,20.51
2023-05-10T00:20:23.954Z,20.52
2023-05-10T00:21:24.049Z,20.48
2023-05-10T00:22:24.203Z,20.48
2023-05-10T00:23:24.637Z,20.48
2023-05-10T00:24:23.758Z,20.5
2023-05-10T00:25:24.345Z,20.48
2023-05-10T00:26:24.229Z,20.5
2023-05-10T00:27:24.021Z,20.49
2023-05-10T00:28:24.296Z,20.5
2023-05-10T00:29:24.178Z,20.53
2023-05-10T00:30:24.121Z,20.53
2023-05-10T00:31:37.927Z,20.51
2023-05-10T00:32:24.070Z,20.52
2023-05-10T00:33:24.169Z,20.51
2023-05-10T00:34:24.289Z,20.50
2023-05-10T00:35:24.115Z,20.50
2023-05-10T00:36:24.139Z,20.49
2023-05-10T00:37:23.932Z,20.45
2023-05-10T00:38:24.032Z,20.47
2023-05-10T00:39:24.208Z,20.47
2023-05-10T00:40:24.292Z,20.47
2023-05-10T00:41:23.923Z,20.45
2023-05-10T00:42:24.243Z,20.45
2023-05-10T00:43:24.016Z,20.45
2023-05-10T00:44:24.018Z,20.46
2023-05-10T00:45:24.325Z,20.43
2023-05-10T00:46:24.470Z,20.42
2023-05-10T00:47:24.652Z,20.42
2023-05-10T00:48:24.560Z,20.40
2023-05-10T00:49:24.454Z,20.42
2023-05-10T00:50:24.336Z,20.42
2023-05-10T00:51:24.603Z,20.36
2023-05-10T00:52:23.780Z,20.35
2023-05-10T00:53:23.967Z,20.31
2023-05-10T00:54:24.076Z,20.31
2023-05-10T00:55:24.175Z,20.32
2023-05-10T00:56:24.258Z,20.31
2023-05-10T00:57:46.207Z,20.26
2023-05-10T00:58:24.083Z,20.25
2023-05-10T00:59:24.144Z,20.21
2023-05-10T01:00:25.164Z,20.17
2023-05-10T01:01:24.186Z,20.20
2023-05-10T01:02:24.170Z,20.22
2023-05-10T01:03:24.434Z,20.21
2023-05-10T01:04:24.549Z,20.20
2023-05-10T01:05:24.776Z,20.18
2023-05-10T01:06:23.924Z,20.13
2023-05-10T01:07:24.223Z,20.16
2023-05-10T01:08:24.205Z,20.17
2023-05-10T01:09:24.020Z,20.20
2023-05-10T01:10:24.169Z,20.20
2023-05-10T01:11:23.953Z,20.23
2023-05-10T01:12:24.227Z,20.26
2023-05-10T01:13:24.170Z,20.26
2023-05-10T01:14:24.111Z,20.25
2023-05-10T01:15:24.061Z,20.24
2023-05-10T01:16:23.969Z,20.27
2023-05-10T01:17:24.178Z,20.26
2023-05-10T01:18:24.400Z,20.25
2023-05-10T01:19:24.009Z,20.27
2023-05-10T01:20:24.326Z,20.28
2023-05-10T01:21:24.067Z,20.27
2023-05-10T01:22:23.963Z,20.29
2023-05-10T01:23:24.196Z,20.31
2023-05-10T01:24:24.467Z,20.31
2023-05-10T01:25:23.908Z,20.33
2023-05-10T01:26:24.120Z,20.32
2023-05-10T01:27:24.238Z,20.35
2023-05-10T01:28:23.891Z,20.34
2023-05-10T01:29:23.791Z,20.31
2023-05-10T01:30:24.494Z,20.33
2023-05-10T01:31:23.935Z,20.32
2023-05-10T01:32:24.147Z,20.34
2023-05-10T01:33:24.096Z,20.34
2023-05-10T01:34:24.082Z,20.35
2023-05-10T01:35:24.674Z,20.36
2023-05-10T01:36:24.241Z,20.38
2023-05-10T01:37:24.083Z,20.38
2023-05-10T01:38:24.029Z,20.40
2023-05-10T01:39:23.941Z,20.40
2023-05-10T01:40:24.229Z,20.41
2023-05-10T01:41:24.185Z,20.42
2023-05-10T01:42:24.009Z,20.43
2023-05-10T01:43:24.086Z,20.42
2023-05-10T01:44:24.138Z,20.43
2023-05-10T01:45:24.548Z,20.44
2023-05-10T01:46:24.358Z,20.45
2023-05-10T01:47:24.735Z,20.46
2023-05-10T01:48:24.340Z,20.45
2023-05-10T01:49:24.666Z,20.46
2023-05-10T01:50:24.307Z,20.46
2023-05-10T01:51:24.360Z,20.47
2023-05-10T01:52:24.455Z,20.47
2023-05-10T01:53:23.918Z,20.5
2023-05-10T01:54:23.902Z,20.49
2023-05-10T01:55:23.942Z,20.48
2023-05-10T01:56:23.917Z,20.47
2023-05-10T01:57:24.126Z,20.49
2023-05-10T01:58:24.226Z,20.47
2023-05-10T01:59:24.371Z,20.50
2023-05-10T02:00:25.355Z,20.51
2023-05-10T02:01:24.235Z,20.50
2023-05-10T02:02:24.605Z,20.51
2023-05-10T02:03:23.951Z,20.52
2023-05-10T02:04:23.911Z,20.53
2023-05-10T02:05:23.991Z,20.53
2023-05-10T02:06:24.194Z,20.51
2023-05-10T02:07:24.067Z,20.51
2023-05-10T02:08:24.192Z,20.51
2023-05-10T02:09:23.913Z,20.52
2023-05-10T02:10:23.966Z,20.53
2023-05-10T02:11:23.836Z,20.51
2023-05-10T02:12:24.212Z,20.49
2023-05-10T02:13:24.363Z,20.49
2023-05-10T02:14:24.530Z,20.49
2023-05-10T02:15:24.665Z,20.49
2023-05-10T02:16:24.621Z,20.47
2023-05-10T02:17:23.857Z,20.45
2023-05-10T02:18:24.133Z,20.42
2023-05-10T02:19:24.178Z,20.38
2023-05-10T02:20:25.016Z,20.39
2023-05-10T02:21:24.500Z,20.38
2023-05-10T02:22:24.240Z,20.39
2023-05-10T02:23:24.261Z,20.34
2023-05-10T02:24:24.422Z,20.28
2023-05-10T02:25:24.828Z,20.25
2023-05-10T02:26:24.193Z,20.26
2023-05-10T02:27:24.118Z,20.23
2023-05-10T02:28:24.212Z,20.23
2023-05-10T02:29:24.289Z,20.25
2023-05-10T02:30:24.292Z,20.25
2023-05-10T02:31:24.439Z,20.23
2023-05-10T02:32:23.875Z,20.22
2023-05-10T02:33:23.779Z,20.22
2023-05-10T02:34:23.889Z,20.18
2023-05-10T02:35:24.153Z,20.19
2023-05-10T02:36:24.205Z,20.20
2023-05-10T02:37:24.160Z,20.20
2023-05-10T02:38:24.196Z,20.16
2023-05-10T02:39:24.341Z,20.17
2023-05-10T02:40:26.210Z,20.18
2023-05-10T02:41:24.082Z,20.19
2023-05-10T02:42:24.075Z,20.20
2023-05-10T02:43:24.135Z,20.22
2023-05-10T02:44:24.053Z,20.23
2023-05-10T02:45:24.391Z,20.25
2023-05-10T02:46:24.270Z,20.25
2023-05-10T02:47:24.391Z,20.25
2023-05-10T02:48:24.508Z,20.26
2023-05-10T02:49:24.336Z,20.27
2023-05-10T02:50:24.691Z,20.27
2023-05-10T02:51:24.144Z,20.29
2023-05-10T02:52:24.221Z,20.29
2023-05-10T02:53:24.201Z,20.29
2023-05-10T02:54:32.403Z,20.29
2023-05-10T02:55:24.353Z,20.30
2023-05-10T02:56:24.262Z,20.31
2023-05-10T02:57:24.256Z,20.32
2023-05-10T02:58:24.380Z,20.32
2023-05-10T02:59:24.510Z,20.31
2023-05-10T03:00:25.502Z,20.32
2023-05-10T03:01:23.848Z,20.33
2023-05-10T03:02:37.895Z,20.30
2023-05-10T03:03:23.799Z,20.32
2023-05-10T03:04:24.460Z,20.31
2023-05-10T03:05:24.700Z,20.31
2023-05-10T03:06:23.630Z,20.32
2023-05-10T03:07:23.804Z,20.31
2023-05-10T03:08:23.986Z,20.33
2023-05-10T03:09:24.309Z,20.35
2023-05-10T03:10:24.129Z,20.33
2023-05-10T03:11:24.284Z,20.35
2023-05-10T03:12:24.399Z,20.36
2023-05-10T03:13:24.697Z,20.36
2023-05-10T03:14:23.934Z,20.38
2023-05-10T03:15:24.367Z,20.38
2023-05-10T03:16:24.424Z,20.38
2023-05-10T03:17:24.127Z,20.38
2023-05-10T03:18:23.840Z,20.38
2023-05-10T03:19:23.562Z,20.39
2023-05-10T03:20:24.552Z,20.38
2023-05-10T03:21:24.321Z,20.39
2023-05-10T03:22:24.191Z,20.38
2023-05-10T03:23:24.023Z,20.41
2023-05-10T03:24:24.165Z,20.40
2023-05-10T03:25:24.066Z,20.42
2023-05-10T03:26:23.931Z,20.42
2023-05-10T03:27:23.806Z,20.42
2023-05-10T03:28:23.995Z,20.43
2023-05-10T03:29:24.214Z,20.42
2023-05-10T03:30:24.473Z,20.41
2023-05-10T03:31:24.576Z,20.40
2023-05-10T03:32:24.346Z,20.39
2023-05-10T03:33:24.450Z,20.41
2023-05-10T03:34:24.365Z,20.42
2023-05-10T03:35:24.622Z,20.42
2023-05-10T03:36:24.318Z,20.42
2023-05-10T03:37:23.977Z,20.42
2023-05-10T03:38:24.097Z,20.43
2023-05-10T03:39:23.859Z,20.41
2023-05-10T03:40:24.106Z,20.43
2023-05-10T03:41:24.258Z,20.41
2023-05-10T03:42:24.241Z,20.42
2023-05-10T03:43:24.231Z,20.42
2023-05-10T03:44:24.358Z,20.41
2023-05-10T03:45:24.350Z,20.41
2023-05-10T03:46:24.512Z,20.41
2023-05-10T03:47:24.349Z,20.40
2023-05-10T03:48:24.229Z,20.42
2023-05-10T03:49:24.219Z,20.39
2023-05-10T03:50:24.843Z,20.40
2023-05-10T03:51:24.355Z,20.42
2023-05-10T03:52:24.680Z,20.41
2023-05-10T03:53:24.323Z,20.42
2023-05-10T03:54:24.381Z,20.41
2023-05-10T03:55:24.540Z,20.40
2023-05-10T03:56:24.537Z,20.38
2023-05-10T03:57:24.122Z,20.37
2023-05-10T03:58:24.758Z,20.37
2023-05-10T03:59:24.099Z,20.38
2023-05-10T04:00:25.613Z,20.40
2023-05-10T04:01:23.801Z,20.42
2023-05-10T04:02:24.155Z,20.43
2023-05-10T04:03:24.819Z,20.42
2023-05-10T04:04:24.295Z,20.42
2023-05-10T04:05:24.297Z,20.40
2023-05-10T04:06:24.590Z,20.40
2023-05-10T04:07:24.180Z,20.43
2023-05-10T04:08:24.530Z,20.44
2023-05-10T04:09:24.155Z,20.45
2023-05-10T04:10:24.808Z,20.45
2023-05-10T04:11:24.185Z,20.45
2023-05-10T04:12:24.375Z,20.44
2023-05-10T04:13:24.584Z,20.42
2023-05-10T04:14:23.958Z,20.43
2023-05-10T04:15:24.386Z,20.44
2023-05-10T04:16:24.562Z,20.45
2023-05-10T04:17:24.434Z,20.43
2023-05-10T04:18:24.067Z,20.43
2023-05-10T04:19:24.163Z,20.40
2023-05-10T04:20:24.354Z,20.41
2023-05-10T04:21:24.122Z,20.43
2023-05-10T04:22:24.270Z,20.44
2023-05-10T04:23:24.507Z,20.43
2023-05-10T04:24:24.422Z,20.45
2023-05-10T04:25:24.598Z,20.44
2023-05-10T04:26:23.814Z,20.43
2023-05-10T04:27:23.841Z,20.43
2023-05-10T04:28:23.930Z,20.44
2023-05-10T04:29:24.177Z,20.44
2023-05-10T04:30:24.676Z,20.46
2023-05-10T04:31:24.042Z,20.45
2023-05-10T04:32:24.352Z,20.45
2023-05-10T04:33:24.484Z,20.45
2023-05-10T04:34:24.490Z,20.45
2023-05-10T04:35:24.786Z,20.45
2023-05-10T04:36:24.215Z,20.45
2023-05-10T04:37:24.767Z,20.42
2023-05-10T04:38:24.420Z,20.45
2023-05-10T04:39:24.291Z,20.47
2023-05-10T04:40:24.477Z,20.47
2023-05-10T04:41:24.465Z,20.51
2023-05-10T04:42:24.504Z,20.51
2023-05-10T04:43:24.336Z,20.51
2023-05-10T04:44:24.739Z,20.53
2023-05-10T04:45:24.733Z,20.5
2023-05-10T04:46:24.407Z,20.50
2023-05-10T04:47:24.137Z,20.50
2023-05-10T04:48:24.224Z,20.54
2023-05-10T04:49:24.907Z,20.53
2023-05-10T04:50:24.481Z,20.54
2023-05-10T04:51:24.569Z,20.53
2023-05-10T04:52:23.977Z,20.55
2023-05-10T04:53:24.639Z,20.55
2023-05-10T04:54:24.576Z,20.57
2023-05-10T04:55:24.700Z,20.56
2023-05-10T04:56:24.414Z,20.57
2023-05-10T04:57:24.867Z,20.57
2023-05-10T04:58:24.567Z,20.58
2023-05-10T04:59:24.723Z,20.57
2023-05-10T05:00:25.473Z,20.61
2023-05-10T05:01:24.085Z,20.63
2023-05-10T05:02:24.902Z,20.61
2023-05-10T05:03:24.573Z,20.60
2023-05-10T05:04:24.239Z,20.53
2023-05-10T05:05:24.691Z,20.55
2023-05-10T05:06:24.236Z,20.57
2023-05-10T05:07:24.550Z,20.59
2023-05-10T05:08:24.216Z,20.59
2023-05-10T05:09:29.664Z,20.59
2023-05-10T05:10:24.356Z,20.59
2023-05-10T05:11:29.781Z,20.57
2023-05-10T05:12:24.273Z,20.62
2023-05-10T05:13:24.327Z,20.61
2023-05-10T05:14:24.711Z,20.64
2023-05-10T05:15:32.633Z,20.67
2023-05-10T05:16:25.052Z,20.71
2023-05-10T05:17:24.780Z,20.73
2023-05-10T05:18:25.087Z,20.75
2023-05-10T05:19:32.731Z,20.78
2023-05-10T05:20:24.873Z,20.78
2023-05-10T05:21:24.528Z,20.81
2023-05-10T05:22:24.177Z,20.82
2023-05-10T05:23:38.380Z,20.87
2023-05-10T05:24:24.013Z,20.85
2023-05-10T05:25:24.218Z,20.83
2023-05-10T05:26:24.594Z,20.82
2023-05-10T05:27:23.945Z,20.79
2023-05-10T05:28:24.350Z,20.74
2023-05-10T05:29:24.754Z,20.76
2023-05-10T05:30:24.433Z,20.79
2023-05-10T05:31:24.119Z,20.82
2023-05-10T05:32:24.641Z,20.78
2023-05-10T05:33:24.156Z,20.73
2023-05-10T05:34:24.790Z,20.70
2023-05-10T05:35:24.251Z,20.69
2023-05-10T05:36:24.628Z,20.67
2023-05-10T05:37:24.201Z,20.64
2023-05-10T05:38:24.646Z,20.63
2023-05-10T05:39:24.167Z,20.61
2023-05-10T05:40:24.805Z,20.59
2023-05-10T05:41:23.976Z,20.63
2023-05-10T05:42:24.446Z,20.61
2023-05-10T05:43:24.241Z,20.57
2023-05-10T05:44:24.362Z,20.57
2023-05-10T05:45:24.592Z,20.57
2023-05-10T05:46:24.441Z,20.60
2023-05-10T05:47:24.207Z,20.63
2023-05-10T05:48:24.780Z,20.61
2023-05-10T05:49:46.693Z,20.56
2023-05-10T05:50:24.601Z,20.59
2023-05-10T05:51:24.392Z,20.44
2023-05-10T05:52:25.125Z,20.47
2023-05-10T05:53:25.179Z,20.56
2023-05-10T05:54:24.382Z,20.60
2023-05-10T05:55:46.601Z,20.64
2023-05-10T05:56:25.054Z,20.73
2023-05-10T05:57:24.559Z,20.71
2023-05-10T05:58:24.398Z,20.77
2023-05-10T05:59:25.090Z,20.83
2023-05-10T06:00:25.984Z,20.86
2023-05-10T06:01:24.549Z,20.89
2023-05-10T06:02:24.401Z,20.91
2023-05-10T06:03:24.719Z,20.95
2023-05-10T06:04:24.317Z,20.98
2023-05-10T06:05:24.845Z,21.04
2023-05-10T06:06:24.465Z,21.04
2023-05-10T06:07:24.820Z,21.07
2023-05-10T06:08:24.470Z,21.09
2023-05-10T06:09:24.472Z,21.07
2023-05-10T06:10:24.437Z,21.15
2023-05-10T06:11:24.512Z,21.17
2023-05-10T06:12:25.033Z,21.15
2023-05-10T06:13:24.641Z,21.17
2023-05-10T06:14:24.299Z,21.20
2023-05-10T06:15:25.311Z,21.23
2023-05-10T06:16:25.010Z,21.26
2023-05-10T06:17:24.682Z,21.29
2023-05-10T06:18:24.887Z,21.34
2023-05-10T06:19:24.657Z,21.32
2023-05-10T06:20:24.808Z,21.36
2023-05-10T06:21:24.501Z,21.40
2023-05-10T06:22:24.690Z,21.45
2023-05-10T06:23:24.498Z,21.49
2023-05-10T06:24:24.264Z,21.51
2023-05-10T06:25:24.478Z,21.53
2023-05-10T06:26:24.491Z,21.56
2023-05-10T06:27:24.412Z,21.59
2023-05-10T06:28:24.302Z,21.63
2023-05-10T06:29:24.468Z,21.67
2023-05-10T06:30:24.960Z,21.67
2023-05-10T06:31:24.568Z,21.68
2023-05-10T06:32:24.491Z,21.69
2023-05-10T06:33:24.755Z,21.70
2023-05-10T06:34:24.416Z,21.69
2023-05-10T06:35:24.304Z,21.64
2023-05-10T06:36:24.354Z,21.66
2023-05-10T06:37:24.797Z,21.62
2023-05-10T06:38:24.606Z,21.62
2023-05-10T06:39:24.546Z,21.64
2023-05-10T06:40:24.335Z,21.67
2023-05-10T06:41:24.986Z,21.66
2023-05-10T06:42:24.567Z,21.67
2023-05-10T06:43:24.231Z,21.69
2023-05-10T06:44:24.745Z,21.68
2023-05-10T06:45:24.593Z,21.70
2023-05-10T06:46:24.425Z,21.72
2023-05-10T06:47:24.256Z,21.71
2023-05-10T06:48:24.266Z,21.71
2023-05-10T06:49:24.888Z,21.71
2023-05-10T06:50:24.863Z,21.73
2023-05-10T06:51:24.560Z,21.76
2023-05-10T06:52:24.543Z,21.75
2023-05-10T06:53:24.486Z,21.76
2023-05-10T06:54:24.160Z,21.79
2023-05-10T06:55:25.063Z,21.79
2023-05-10T06:56:24.618Z,21.80
2023-05-10T06:57:31.606Z,21.81
2023-05-10T06:58:24.411Z,21.81
2023-05-10T06:59:24.991Z,21.83
2023-05-10T07:00:26.032Z,21.87
2023-05-10T07:01:25.050Z,21.88
2023-05-10T07:02:25.115Z,21.93
2023-05-10T07:03:24.969Z,21.97
2023-05-10T07:04:24.609Z,22.01
2023-05-10T07:05:24.718Z,22.06
2023-05-10T07:06:32.935Z,22.12
2023-05-10T07:07:24.432Z,22.17
2023-05-10T07:08:24.464Z,22.22
2023-05-10T07:09:24.393Z,22.26
2023-05-10T07:10:24.607Z,22.30
2023-05-10T07:11:24.366Z,22.36
2023-05-10T07:12:24.840Z,22.40
2023-05-10T07:13:24.592Z,22.43
2023-05-10T07:14:24.546Z,22.46
2023-05-10T07:15:24.937Z,22.48
2023-05-10T07:16:24.791Z,22.53
2023-05-10T07:17:24.808Z,22.54
2023-05-10T07:18:24.383Z,22.57
2023-05-10T07:19:24.297Z,22.61
2023-05-10T07:20:24.561Z,22.62
2023-05-10T07:21:24.432Z,22.65
2023-05-10T07:22:24.399Z,22.67
2023-05-10T07:23:24.898Z,22.68
2023-05-10T07:24:24.541Z,22.73
2023-05-10T07:25:24.834Z,22.77
2023-05-10T07:26:24.693Z,22.85
2023-05-10T07:27:24.570Z,22.87
2023-05-10T07:28:24.295Z,22.92
2023-05-10T07:29:24.481Z,22.94
2023-05-10T07:30:29.774Z,23.01
2023-05-10T07:31:24.965Z,23.01
2023-05-10T07:32:24.853Z,23.07
2023-05-10T07:33:24.625Z,23.10
2023-05-10T07:34:29.406Z,23.17
2023-05-10T07:35:24.481Z,23.21
2023-05-10T07:36:24.402Z,23.27
2023-05-10T07:37:24.495Z,23.32
2023-05-10T07:38:24.842Z,23.38
2023-05-10T07:39:27.142Z,23.42
2023-05-10T07:40:24.836Z,23.46
2023-05-10T07:41:24.700Z,23.47
2023-05-10T07:42:32.523Z,23.48
2023-05-10T07:43:24.965Z,23.52
2023-05-10T07:44:24.516Z,23.54
2023-05-10T07:45:24.809Z,23.56
2023-05-10T07:46:24.749Z,23.59
2023-05-10T07:47:24.627Z,23.60
2023-05-10T07:48:24.681Z,23.60
2023-05-10T07:49:24.763Z,23.61
2023-05-10T07:50:24.744Z,23.62
2023-05-10T07:51:25.023Z,23.62
2023-05-10T07:52:24.669Z,23.63
2023-05-10T07:53:24.964Z,23.59
2023-05-10T07:54:24.414Z,23.62
2023-05-10T07:55:25.026Z,23.61
2023-05-10T07:56:24.520Z,23.63
2023-05-10T07:57:25.287Z,23.62
2023-05-10T07:58:24.434Z,23.63
2023-05-10T07:59:24.597Z,23.67
2023-05-10T08:00:25.314Z,23.72
2023-05-10T08:01:24.878Z,23.69
2023-05-10T08:02:24.537Z,23.62
2023-05-10T08:03:24.637Z,23.51
2023-05-10T08:04:24.862Z,23.46
2023-05-10T08:05:25.240Z,23.37
2023-05-10T08:06:24.324Z,23.30
2023-05-10T08:07:24.704Z,23.13
2023-05-10T08:08:24.515Z,23
2023-05-10T08:09:24.332Z,22.85
2023-05-10T08:10:24.420Z,22.69
2023-05-10T08:11:24.859Z,22.62
2023-05-10T08:12:24.781Z,22.66
2023-05-10T08:13:24.492Z,22.68
2023-05-10T08:14:24.274Z,22.51
2023-05-10T08:15:25.088Z,22.42
2023-05-10T08:16:24.857Z,22.30
2023-05-10T08:17:24.860Z,22.12
2023-05-10T08:18:24.574Z,22.12
2023-05-10T08:19:24.412Z,22.05
2023-05-10T08:20:46.540Z,21.95
2023-05-10T08:21:24.915Z,21.81
2023-05-10T08:22:24.638Z,21.68
2023-05-10T08:23:24.940Z,21.64
2023-05-10T08:24:24.530Z,21.61
2023-05-10T08:25:24.525Z,21.48
2023-05-10T08:26:25.126Z,21.46
2023-05-10T08:27:24.953Z,21.47
2023-05-10T08:28:24.720Z,21.47
2023-05-10T08:29:25.387Z,21.45
2023-05-10T08:30:25.165Z,21.40
2023-05-10T08:31:24.926Z,21.43
2023-05-10T08:32:24.573Z,21.46
2023-05-10T08:33:24.555Z,21.40
2023-05-10T08:34:25.090Z,21.39
2023-05-10T08:35:24.398Z,21.33
2023-05-10T08:36:24.464Z,21.19
2023-05-10T08:37:24.247Z,21.20
2023-05-10T08:38:24.767Z,21.22
2023-05-10T08:39:30.432Z,21.23
2023-05-10T08:40:24.802Z,21.26
2023-05-10T08:41:24.669Z,21.28
2023-05-10T08:42:24.457Z,21.26
2023-05-10T08:43:24.103Z,21.24
2023-05-10T08:44:24.895Z,21.27
2023-05-10T08:45:25.005Z,21.23
2023-05-10T08:46:24.890Z,21.18
2023-05-10T08:47:24.334Z,21.24
2023-05-10T08:48:24.890Z,21.28
2023-05-10T08:49:24.840Z,21.24
2023-05-10T08:50:24.863Z,21.30
2023-05-10T08:51:24.935Z,21.40
2023-05-10T08:52:24.411Z,21.43
2023-05-10T08:53:24.191Z,21.42
2023-05-10T08:54:24.863Z,21.44
2023-05-10T08:55:24.851Z,21.51
2023-05-10T08:56:24.743Z,21.59
2023-05-10T08:57:24.403Z,21.60
2023-05-10T08:58:24.349Z,21.65
2023-05-10T08:59:25.469Z,21.80
2023-05-10T09:00:25.784Z,21.92
2023-05-10T09:01:25.031Z,21.94
2023-05-10T09:02:25.044Z,22.02
2023-05-10T09:03:25.021Z,22.09
2023-05-10T09:04:24.716Z,22.10
2023-05-10T09:05:25.032Z,22.07
2023-05-10T09:06:24.772Z,22.10
2023-05-10T09:07:24.671Z,22.10
2023-05-10T09:08:24.505Z,22.18
2023-05-10T09:09:24.290Z,22.30
2023-05-10T09:11:30.375Z,22.45
2023-05-10T09:12:24.725Z,22.50
2023-05-10T09:13:24.923Z,22.52
2023-05-10T09:14:24.678Z,22.54
2023-05-10T09:15:25.006Z,22.53
2023-05-10T09:16:25.077Z,22.50
2023-05-10T09:17:24.638Z,22.54
2023-05-10T09:18:27.297Z,22.56
2023-05-10T09:19:24.576Z,22.5
2023-05-10T09:20:24.739Z,22.45
2023-05-10T09:21:24.946Z,22.46
2023-05-10T09:22:24.957Z,22.45
2023-05-10T09:23:24.905Z,22.39
2023-05-10T09:24:24.981Z,22.38
2023-05-10T09:25:24.681Z,22.31
2023-05-10T09:26:24.578Z,22.34
2023-05-10T09:27:24.330Z,22.28
2023-05-10T09:28:24.695Z,22.18
2023-05-10T09:29:24.982Z,22.15
2023-05-10T09:30:25.217Z,22.08
2023-05-10T09:31:24.886Z,22.12
2023-05-10T09:32:24.772Z,22.13
2023-05-10T09:33:25.052Z,22.23
2023-05-10T09:34:24.594Z,22.32
2023-05-10T09:35:25.868Z,22.40
2023-05-10T09:36:24.878Z,22.49
2023-05-10T09:37:24.806Z,22.45
2023-05-10T09:38:24.623Z,22.54
2023-05-10T09:39:24.814Z,22.60
2023-05-10T09:40:25.011Z,22.65
2023-05-10T09:41:24.921Z,22.81
2023-05-10T09:42:24.748Z,22.88
2023-05-10T09:43:24.550Z,22.97
2023-05-10T09:44:24.611Z,23.08
2023-05-10T09:45:24.712Z,23.17
2023-05-10T09:46:24.930Z,23.19
2023-05-10T09:47:24.959Z,23.23
2023-05-10T09:48:25.109Z,23.29
2023-05-10T09:49:24.189Z,23.32
2023-05-10T09:50:25.014Z,23.48
2023-05-10T09:51:24.765Z,23.57
2023-05-10T09:52:24.464Z,23.61
2023-05-10T09:53:24.706Z,23.65
2023-05-10T09:54:24.990Z,23.70
2023-05-10T09:55:29.978Z,23.78
2023-05-10T09:56:24.700Z,23.82
2023-05-10T09:57:24.385Z,23.88
2023-05-10T09:58:24.503Z,23.93
2023-05-10T09:59:29.796Z,23.94
2023-05-10T10:00:25.804Z,23.97
2023-05-10T10:01:29.745Z,23.98
2023-05-10T10:02:25.095Z,23.98
2023-05-10T10:03:24.814Z,24.02
2023-05-10T10:04:24.791Z,24.08
2023-05-10T10:05:25.334Z,24.04
2023-05-10T10:06:30.012Z,24.06
2023-05-10T10:07:32.597Z,24.09
2023-05-10T10:08:24.482Z,24.15
2023-05-10T10:09:24.411Z,24.16
2023-05-10T10:10:24.497Z,24.17
2023-05-10T10:11:24.426Z,24.20
2023-05-10T10:12:24.357Z,24.28
2023-05-10T10:13:24.276Z,24.36
2023-05-10T10:14:24.856Z,24.37
2023-05-10T10:15:24.920Z,24.23
2023-05-10T10:16:24.840Z,24.26
2023-05-10T10:17:38.962Z,24.37
2023-05-10T10:18:24.577Z,24.45
2023-05-10T10:19:38.679Z,24.54
2023-05-10T10:20:24.532Z,24.61
2023-05-10T10:21:24.223Z,24.69
2023-05-10T10:22:24.755Z,24.77
2023-05-10T10:23:38.444Z,24.85
2023-05-10T10:24:24.587Z,24.91
2023-05-10T10:25:24.612Z,24.93
2023-05-10T10:26:24.323Z,24.92
2023-05-10T10:27:38.775Z,24.83
2023-05-10T10:28:25.967Z,24.79
2023-05-10T10:29:24.504Z,24.93
2023-05-10T10:30:24.793Z,24.97
2023-05-10T10:31:43.752Z,24.96
2023-05-10T10:32:24.536Z,24.95
2023-05-10T10:33:44.818Z,25.11
2023-05-10T10:34:24.448Z,25.17
2023-05-10T10:35:25.299Z,25.19
2023-05-10T10:36:24.439Z,25.23
2023-05-10T10:37:24.975Z,25.20
2023-05-10T10:38:25.001Z,25.25
2023-05-10T10:39:25.364Z,25.33
2023-05-10T10:40:24.532Z,25.40
2023-05-10T10:41:24.807Z,25.44
2023-05-10T10:42:24.825Z,25.51
2023-05-10T10:43:24.642Z,25.57
2023-05-10T10:44:24.418Z,25.66
2023-05-10T10:45:24.626Z,25.75
2023-05-10T10:46:24.314Z,25.82
2023-05-10T10:47:25.163Z,25.82
2023-05-10T10:48:25.087Z,25.84
2023-05-10T10:49:25.136Z,25.73
2023-05-10T10:50:25.221Z,25.68
2023-05-10T10:51:25.266Z,25.62
2023-05-10T10:52:24.277Z,25.48
2023-05-10T10:53:25.142Z,25.44
2023-05-10T10:54:24.140Z,25.48
2023-05-10T10:55:25.570Z,25.52
2023-05-10T10:56:24.684Z,25.48
2023-05-10T10:58:29.239Z,25.54
2023-05-10T11:00:30.015Z,25.50
2023-05-10T11:01:25.355Z,25.46
2023-05-10T11:02:24.753Z,25.44
2023-05-10T11:03:24.604Z,25.44
2023-05-10T11:04:24.801Z,25.44
2023-05-10T11:05:25.142Z,25.40
2023-05-10T11:06:25.295Z,25.38
2023-05-10T11:08:29.728Z,25.27
2023-05-10T11:09:24.751Z,25.27
2023-05-10T11:10:24.785Z,25.27
2023-05-10T11:11:24.860Z,25.27
2023-05-10T11:12:24.476Z,25.31
2023-05-10T11:13:25.032Z,25.39
2023-05-10T11:14:24.939Z,25.43
2023-05-10T11:15:24.995Z,25.47
2023-05-10T11:16:24.928Z,25.51
2023-05-10T11:17:25.132Z,25.45
2023-05-10T11:18:24.010Z,25.34
2023-05-10T11:19:24.790Z,25.29
2023-05-10T11:20:24.760Z,25.32
2023-05-10T11:21:24.641Z,25.35
2023-05-10T11:22:24.177Z,25.38
2023-05-10T11:23:24.840Z,25.44
2023-05-10T11:24:25.107Z,25.51
2023-05-10T11:25:25.493Z,25.51
2023-05-10T11:26:24.859Z,25.54
2023-05-10T11:27:25.145Z,25.62
2023-05-10T11:28:25.196Z,25.75
2023-05-10T11:29:24.320Z,25.81
2023-05-10T11:30:24.682Z,25.85
2023-05-10T11:31:24.659Z,25.88
2023-05-10T11:32:24.814Z,25.90
2023-05-10T11:33:24.741Z,25.86
2023-05-10T11:34:24.334Z,25.85
2023-05-10T11:35:24.694Z,25.81
2023-05-10T11:36:24.678Z,25.77
2023-05-10T11:37:24.370Z,25.75
2023-05-10T11:38:24.522Z,25.82
2023-05-10T11:39:24.845Z,25.94
2023-05-10T11:40:24.717Z,26.03
2023-05-10T11:41:24.563Z,26.06
2023-05-10T11:42:24.739Z,26.04
2023-05-10T11:43:24.656Z,26.02
2023-05-10T11:44:24.654Z,26.02
2023-05-10T11:45:24.756Z,26.01
2023-05-10T11:46:24.738Z,25.97
2023-05-10T11:47:24.799Z,25.95
2023-05-10T11:48:24.785Z,25.98
2023-05-10T11:49:24.684Z,26.02
2023-05-10T11:50:24.995Z,26.07
2023-05-10T11:51:25.210Z,26.06
2023-05-10T11:52:24.741Z,26
2023-05-10T11:53:25.933Z,25.97
2023-05-10T11:54:25.236Z,25.94
2023-05-10T11:55:24.455Z,25.95
2023-05-10T11:56:24.597Z,25.89
2023-05-10T11:57:25.130Z,25.92
2023-05-10T11:58:25.188Z,25.92
2023-05-10T11:59:24.719Z,25.90
2023-05-10T12:00:25.485Z,25.86
2023-05-10T12:01:24.584Z,25.79
2023-05-10T12:02:24.516Z,25.71
2023-05-10T12:03:24.753Z,25.68
2023-05-10T12:04:24.810Z,25.51
2023-05-10T12:05:24.924Z,25.42
2023-05-10T12:06:24.398Z,25.44
2023-05-10T12:07:24.519Z,25.49
2023-05-10T12:08:24.359Z,25.53
2023-05-10T12:09:39.628Z,25.52
2023-05-10T12:10:24.615Z,25.60
2023-05-10T12:11:24.434Z,25.69
2023-05-10T12:12:24.565Z,25.79
2023-05-10T12:13:24.382Z,25.81
2023-05-10T12:14:25.046Z,25.81
2023-05-10T12:15:25.140Z,25.82
2023-05-10T12:16:25.278Z,25.88
2023-05-10T12:17:24.544Z,25.87
2023-05-10T12:18:24.804Z,25.87
2023-05-10T12:19:24.909Z,25.89
2023-05-10T12:20:25.565Z,25.92
2023-05-10T12:21:24.943Z,25.92
2023-05-10T12:22:24.788Z,25.97
2023-05-10T12:23:24.671Z,26.07
2023-05-10T12:24:24.561Z,26.14
2023-05-10T12:25:24.346Z,26.20
2023-05-10T12:26:25.031Z,26.28
2023-05-10T12:27:24.950Z,26.40
2023-05-10T12:28:24.941Z,26.46
2023-05-10T12:29:24.912Z,26.49
2023-05-10T12:30:25.209Z,26.53
2023-05-10T12:31:24.534Z,26.55
2023-05-10T12:32:32.375Z,26.55
2023-05-10T12:33:24.389Z,26.56
2023-05-10T12:34:24.327Z,26.54
2023-05-10T12:35:24.523Z,26.48
2023-05-10T12:36:32.635Z,26.47
2023-05-10T12:37:24.481Z,26.55
2023-05-10T12:38:38.500Z,26.55
2023-05-10T12:39:24.357Z,26.48
2023-05-10T12:40:38.913Z,26.48
2023-05-10T12:41:24.975Z,26.46
2023-05-10T12:42:38.616Z,26.37
2023-05-10T12:43:24.507Z,26.31
2023-05-10T12:44:38.358Z,26.26
2023-05-10T12:45:24.908Z,26.20
2023-05-10T12:46:25.266Z,26.21
2023-05-10T12:47:24.820Z,26.14
2023-05-10T12:48:25.023Z,26.06
2023-05-10T12:49:25.025Z,25.96
2023-05-10T12:50:39.283Z,25.95
2023-05-10T12:51:25.305Z,25.95
2023-05-10T12:52:25.187Z,25.96
2023-05-10T12:53:25.407Z,26.02
2023-05-10T12:54:24.810Z,26.06
2023-05-10T12:55:24.915Z,26.03
2023-05-10T12:56:24.812Z,26.00
2023-05-10T12:57:24.874Z,25.88